首页
METAR-TAF:

METAR-TAF

机场 :

維珍尼亞海灘, 弗吉尼亚州, 美国

纬度: 36-49-16N, 经度: 076-01-42W, 海拔: 6米

当前天气观测

该预报发布于14分钟前的18:56 UTC
风速9节,风向东转东北
温度 28°C
湿度 66%
气压 1013 hPa
能見度: 16.1公里
少量云层高于3000英尺
少量云层高于25000英尺

METAR: KNTU 041856Z 07009KT 10SM FEW030 FEW250 28/21 A2992 RMK AO2 SLP135 CB DSNT SW AND NW T02780211

时间: 15:10 (19:10 UTC)

预报

预报有效从04日的 15点(UTC)到 05日的 15点(UTC)
风速8节,风向北转东北
能见度10公里或以上
散云层高于25000英尺
成为
从 04日的 18点(UTC)到 04日的 20点(UTC)
风速8节,风向东转东北
能见度10公里或以上
散云层高于25000英尺
成为
从 05日的 03点(UTC)到 05日的 05点(UTC)
风速6节,风向多变
能见度10公里或以上
散云层高于3000英尺
多云层高于25000英尺
短暂存在
从 05日的 09点(UTC)到 05日的 12点(UTC)
风速6节,风向多变
能見度: 6000
多云层高于3000英尺
轻雾

TAF: KNTU 0415/0515 03008KT 9999 SCT250 QNH2985INS BECMG 0418/0420 06008KT 9999 SCT250 QNH2986INS BECMG 0503/0505 VRB06KT 9999 SCT030 BKN250 QNH2989INS TEMPO 0509/0512 VRB06KT 6000 BR BKN030 T30/0417Z T21/0503Z FN00230

超过4000个机场的气象观测和天气预报(METAR&TAF报告)。

可查询的气象台以黄色和红色小点在地图上表示。

将鼠标移到小点上方,可查看气象台名称。

然后点击查看天气观测和预报。

如需切换地图:点击带黑十字的绿色按钮放大地图;点击带横线的绿色按钮缩小地图;或者点击绿色箭头查看邻近地区的地图。


METAR-TAF: